createdAt,value
2018-01-15T00:00:31.687Z,-1.91
2018-01-15T00:01:57.823Z,-1.90
2018-01-15T00:03:24.525Z,-1.92
2018-01-15T00:04:51.457Z,-1.94
2018-01-15T00:06:18.464Z,-1.95
2018-01-15T00:07:46.348Z,-1.96
2018-01-15T00:09:13.269Z,-1.92
2018-01-15T00:10:39.149Z,-1.89
2018-01-15T00:12:06.295Z,-1.88
2018-01-15T00:13:34.435Z,-1.88
2018-01-15T00:15:01.392Z,-1.87
2018-01-15T00:16:28.514Z,-1.84
2018-01-15T00:17:55.445Z,-1.86
2018-01-15T00:19:21.268Z,-1.87
2018-01-15T00:20:49.421Z,-1.85
2018-01-15T00:22:16.440Z,-1.89
2018-01-15T00:23:42.544Z,-1.88
2018-01-15T00:25:10.647Z,-1.87
2018-01-15T00:26:36.722Z,-1.87
2018-01-15T00:28:04.436Z,-1.86
2018-01-15T00:29:30.231Z,-1.85
2018-01-15T00:30:57.221Z,-1.87
2018-01-15T00:32:24.993Z,-1.88
2018-01-15T00:33:52.058Z,-1.86
2018-01-15T00:35:18.969Z,-1.86
2018-01-15T00:36:45.833Z,-1.87
2018-01-15T00:38:12.103Z,-1.88
2018-01-15T00:39:38.854Z,-1.88
2018-01-15T00:41:06.808Z,-1.88
2018-01-15T00:42:33.785Z,-1.83
2018-01-15T00:43:59.531Z,-1.72
2018-01-15T00:45:26.377Z,-1.68
2018-01-15T00:46:54.302Z,-1.68
2018-01-15T00:48:20.454Z,-1.64
2018-01-15T00:49:48.449Z,-1.60
2018-01-15T00:51:14.526Z,-1.55
2018-01-15T00:52:41.350Z,-1.53
2018-01-15T00:54:09.482Z,-1.55
2018-01-15T00:55:36.517Z,-1.54
2018-01-15T00:57:03.505Z,-1.57
2018-01-15T00:58:29.407Z,-1.60
2018-01-15T00:59:57.329Z,-1.60
2018-01-15T01:01:23.317Z,-1.58
2018-01-15T01:02:51.302Z,-1.55
2018-01-15T01:04:18.296Z,-1.53
2018-01-15T01:05:45.414Z,-1.54
2018-01-15T01:07:11.592Z,-1.58
2018-01-15T01:08:39.731Z,-1.57
2018-01-15T01:10:06.746Z,-1.57
2018-01-15T01:11:32.683Z,-1.57
2018-01-15T01:13:00.671Z,-1.54
2018-01-15T01:14:27.663Z,-1.52
2018-01-15T01:15:54.839Z,-1.52
2018-01-15T01:17:20.692Z,-1.52
2018-01-15T01:18:48.551Z,-1.56
2018-01-15T01:20:15.545Z,-1.52
2018-01-15T01:21:42.457Z,-1.53
2018-01-15T01:23:08.572Z,-1.54
2018-01-15T01:24:36.593Z,-1.48
2018-01-15T01:26:03.402Z,-1.45
2018-01-15T01:27:30.564Z,-1.48
2018-01-15T01:28:57.748Z,-1.49
2018-01-15T01:30:23.803Z,-1.50
2018-01-15T01:31:51.912Z,-1.48
2018-01-15T01:33:18.761Z,-1.45
2018-01-15T01:34:45.908Z,-1.42
2018-01-15T01:36:11.993Z,-1.41
2018-01-15T01:37:39.819Z,-1.41
2018-01-15T01:39:05.815Z,-1.39
2018-01-15T01:40:33.899Z,-1.41
2018-01-15T01:42:00.941Z,-1.39
2018-01-15T01:43:27.652Z,-1.42
2018-01-15T01:44:54.741Z,-1.43
2018-01-15T01:46:20.855Z,-1.38
2018-01-15T01:47:48.873Z,-1.36
2018-01-15T01:49:14.864Z,-1.35
2018-01-15T01:50:42.882Z,-1.38
2018-01-15T01:52:08.826Z,-1.45
2018-01-15T01:53:36.647Z,-1.45
2018-01-15T01:55:03.738Z,-1.49
2018-01-15T01:56:30.704Z,-1.46
2018-01-15T01:57:56.589Z,-1.47
2018-01-15T01:59:23.532Z,-1.50
2018-01-15T02:00:51.415Z,-1.50
2018-01-15T02:02:18.290Z,-1.51
2018-01-15T02:03:45.090Z,-1.47
2018-01-15T02:05:12.072Z,-1.44
2018-01-15T02:06:39.054Z,-1.48
2018-01-15T02:08:06.017Z,-1.45
2018-01-15T02:09:33.051Z,-1.50
2018-01-15T02:10:59.928Z,-1.49
2018-01-15T02:12:26.928Z,-1.47
2018-01-15T02:13:53.715Z,-1.44
2018-01-15T02:15:20.534Z,-1.46
2018-01-15T02:16:47.604Z,-1.44
2018-01-15T02:18:14.772Z,-1.47
2018-01-15T02:19:41.653Z,-1.41
2018-01-15T02:21:08.591Z,-1.40
2018-01-15T02:22:35.715Z,-1.40
2018-01-15T02:24:02.794Z,-1.39
2018-01-15T02:25:29.797Z,-1.38
2018-01-15T02:26:56.948Z,-1.41
2018-01-15T02:28:23.826Z,-1.48
2018-01-15T02:29:50.756Z,-1.48
2018-01-15T02:31:16.725Z,-1.46
2018-01-15T02:32:44.647Z,-1.44
2018-01-15T02:34:16.675Z,-1.41
2018-01-15T02:35:37.618Z,-1.39
2018-01-15T02:37:04.647Z,-1.36
2018-01-15T02:38:32.810Z,-1.39
2018-01-15T02:39:59.688Z,-1.41
2018-01-15T02:41:26.591Z,-1.40
2018-01-15T02:42:53.677Z,-1.38
2018-01-15T02:44:20.719Z,-1.38
2018-01-15T02:45:46.690Z,-1.36
2018-01-15T02:47:14.736Z,-1.33
2018-01-15T02:48:41.902Z,-1.29
2018-01-15T02:50:07.952Z,-1.24
2018-01-15T02:51:35.941Z,-1.24
2018-01-15T02:53:01.975Z,-1.21
2018-01-15T02:54:29.918Z,-1.20
2018-01-15T02:55:57.041Z,-1.16
2018-01-15T02:57:23.175Z,-1.15
2018-01-15T02:58:50.226Z,-1.16
2018-01-15T03:00:17.200Z,-1.15
2018-01-15T03:01:43.996Z,-1.12
2018-01-15T03:03:12.068Z,-1.11
2018-01-15T03:04:39.129Z,-1.09
2018-01-15T03:06:06.095Z,-1.10
2018-01-15T03:07:32.029Z,-1.08
2018-01-15T03:09:00.144Z,-1.11
2018-01-15T03:10:27.143Z,-1.13
2018-01-15T03:11:54.043Z,-1.11
2018-01-15T03:13:20.173Z,-1.09
2018-01-15T03:14:48.114Z,-1.06
2018-01-15T03:16:15.354Z,-1.01
2018-01-15T03:17:41.408Z,-0.96
2018-01-15T03:19:09.243Z,-0.94
2018-01-15T03:20:36.257Z,-0.94
2018-01-15T03:22:03.282Z,-0.92
2018-01-15T03:23:30.265Z,-0.97
2018-01-15T03:24:57.200Z,-0.96
2018-01-15T03:26:24.407Z,-0.97
2018-01-15T03:27:51.225Z,-0.96
2018-01-15T03:29:17.122Z,-0.96
2018-01-15T03:30:45.309Z,-0.94
2018-01-15T03:32:12.297Z,-0.93
2018-01-15T03:33:39.155Z,-0.91
2018-01-15T03:35:05.300Z,-0.88
2018-01-15T03:36:32.385Z,-0.86
2018-01-15T03:38:00.327Z,-0.86
2018-01-15T03:39:26.445Z,-0.86
2018-01-15T03:40:53.435Z,-0.92
2018-01-15T03:42:20.439Z,-0.94
2018-01-15T03:43:47.483Z,-0.92
2018-01-15T03:45:14.650Z,-0.90
2018-01-15T03:46:42.502Z,-0.87
2018-01-15T03:48:09.349Z,-0.84
2018-01-15T03:49:36.423Z,-0.81
2018-01-15T03:51:02.502Z,-0.79
2018-01-15T03:52:30.664Z,-0.79
2018-01-15T03:53:57.544Z,-0.78
2018-01-15T03:55:23.860Z,-0.78
2018-01-15T03:56:50.951Z,-0.79
2018-01-15T03:58:18.979Z,-0.78
2018-01-15T03:59:45.944Z,-0.78
2018-01-15T04:01:11.801Z,-0.75
2018-01-15T04:02:38.979Z,-0.73
2018-01-15T04:04:06.198Z,-0.74
2018-01-15T04:05:33.252Z,-0.72
2018-01-15T04:07:01.284Z,-0.74
2018-01-15T04:08:28.269Z,-0.71
2018-01-15T04:09:55.464Z,-0.67
2018-01-15T04:11:22.609Z,-0.66
2018-01-15T04:12:49.600Z,-0.66
2018-01-15T04:14:16.872Z,-0.64
2018-01-15T04:15:43.907Z,-0.61
2018-01-15T04:17:10.036Z,-0.57
2018-01-15T04:18:37.374Z,-0.57
2018-01-15T04:20:05.231Z,-0.55
2018-01-15T04:21:32.277Z,-0.58
2018-01-15T04:22:59.175Z,-0.58
2018-01-15T04:24:25.191Z,-0.60
2018-01-15T04:25:52.318Z,-0.59
2018-01-15T04:27:20.239Z,-0.55
2018-01-15T04:28:47.424Z,-0.53
2018-01-15T04:30:13.614Z,-0.52
2018-01-15T04:31:41.698Z,-0.50
2018-01-15T04:33:07.472Z,-0.46
2018-01-15T04:34:34.440Z,-0.51
2018-01-15T04:36:01.413Z,-0.48
2018-01-15T04:37:29.510Z,-0.47
2018-01-15T04:38:55.435Z,-0.44
2018-01-15T04:40:23.515Z,-0.46
2018-01-15T04:41:50.474Z,-0.46
2018-01-15T04:43:16.502Z,-0.47
2018-01-15T04:44:43.714Z,-0.47
2018-01-15T04:46:10.583Z,-0.44
2018-01-15T04:47:38.542Z,-0.42
2018-01-15T04:49:05.318Z,-0.39
2018-01-15T04:50:31.451Z,-0.42
2018-01-15T04:51:59.538Z,-0.43
2018-01-15T04:53:26.472Z,-0.44
2018-01-15T04:54:52.589Z,-0.44
2018-01-15T04:56:20.610Z,-0.43
2018-01-15T04:57:47.670Z,-0.42
2018-01-15T04:59:14.842Z,-0.39
2018-01-15T05:00:41.914Z,-0.40
2018-01-15T05:02:07.824Z,-0.37
2018-01-15T05:03:35.695Z,-0.35
2018-01-15T05:05:01.654Z,-0.35
2018-01-15T05:06:29.563Z,-0.33
2018-01-15T05:07:56.588Z,-0.29
2018-01-15T05:09:23.536Z,-0.29
2018-01-15T05:10:49.582Z,-0.29
2018-01-15T05:12:17.400Z,-0.27
2018-01-15T05:13:44.441Z,-0.26
2018-01-15T05:15:11.436Z,-0.22
2018-01-15T05:16:38.535Z,-0.23
2018-01-15T05:18:05.611Z,-0.23
2018-01-15T05:19:32.686Z,-0.25
2018-01-15T05:20:59.482Z,-0.28
2018-01-15T05:22:26.527Z,-0.31
2018-01-15T05:23:53.461Z,-0.30
2018-01-15T05:25:19.529Z,-0.29
2018-01-15T05:26:47.600Z,-0.28
2018-01-15T05:28:13.649Z,-0.25
2018-01-15T05:29:41.761Z,-0.25
2018-01-15T05:31:07.668Z,-0.24
2018-01-15T05:32:34.943Z,-0.22
2018-01-15T05:34:02.784Z,-0.22
2018-01-15T05:35:28.897Z,-0.24
2018-01-15T05:36:55.948Z,-0.23
2018-01-15T05:38:25.944Z,-0.20
2018-01-15T05:39:51.109Z,-0.18
2018-01-15T05:41:18.309Z,-0.19
2018-01-15T05:42:44.330Z,-0.20
2018-01-15T05:44:12.549Z,-0.21
2018-01-15T05:45:39.460Z,-0.22
2018-01-15T05:47:05.573Z,-0.19
2018-01-15T05:48:32.530Z,-0.17
2018-01-15T05:50:00.429Z,-0.18
2018-01-15T05:51:27.556Z,-0.17
2018-01-15T05:52:53.759Z,-0.13
2018-01-15T05:54:20.524Z,-0.11
2018-01-15T05:55:48.758Z,-0.14
2018-01-15T05:57:14.818Z,-0.13
2018-01-15T05:58:42.873Z,-0.09
2018-01-15T06:00:09.928Z,-0.09
2018-01-15T06:01:35.833Z,-0.09
2018-01-15T06:03:03.763Z,-0.07
2018-01-15T06:04:30.415Z,-0.06
2018-01-15T06:05:57.420Z,-0.06
2018-01-15T06:07:23.494Z,-0.07
2018-01-15T06:08:50.847Z,-0.05
2018-01-15T06:10:18.066Z,-0.05
2018-01-15T06:11:45.120Z,-0.01
2018-01-15T06:13:13.105Z,-0.02
2018-01-15T06:14:40.253Z,-0.02
2018-01-15T06:16:07.149Z,0.01
2018-01-15T06:17:34.155Z,0.02
2018-01-15T06:19:01.320Z,0.01
2018-01-15T06:20:28.370Z,-0.02
2018-01-15T06:21:55.375Z,0.00
2018-01-15T06:23:21.358Z,-0.04
2018-01-15T06:24:48.328Z,-0.07
2018-01-15T06:26:15.447Z,-0.09
2018-01-15T06:27:43.669Z,-0.09
2018-01-15T06:29:10.851Z,-0.10
2018-01-15T06:30:37.850Z,-0.07
2018-01-15T06:32:04.903Z,-0.09
2018-01-15T06:33:31.916Z,-0.10
2018-01-15T06:34:57.889Z,-0.11
2018-01-15T06:36:25.567Z,-0.14
2018-01-15T06:37:52.685Z,-0.15
2018-01-15T06:39:18.954Z,-0.15
2018-01-15T06:40:46.840Z,-0.17
2018-01-15T06:42:14.083Z,-0.20
2018-01-15T06:43:40.130Z,-0.24
2018-01-15T06:45:08.206Z,-0.26
2018-01-15T06:46:35.455Z,-0.28
2018-01-15T06:48:02.244Z,-0.28
2018-01-15T06:49:28.236Z,-0.27
2018-01-15T06:50:56.224Z,-0.27
2018-01-15T06:52:23.142Z,-0.29
2018-01-15T06:53:49.170Z,-0.25
2018-01-15T06:55:17.275Z,-0.26
2018-01-15T06:56:43.412Z,-0.26
2018-01-15T06:58:11.674Z,-0.31
2018-01-15T06:59:37.815Z,-0.35
2018-01-15T07:01:04.992Z,-0.34
2018-01-15T07:02:32.191Z,-0.34
2018-01-15T07:04:00.047Z,-0.35
2018-01-15T07:05:27.101Z,-0.34
2018-01-15T07:06:54.189Z,-0.33
2018-01-15T07:08:21.351Z,-0.32
2018-01-15T07:09:47.236Z,-0.35
2018-01-15T07:11:15.365Z,-0.36
2018-01-15T07:12:41.453Z,-0.38
2018-01-15T07:14:09.669Z,-0.37
2018-01-15T07:15:36.480Z,-0.36
2018-01-15T07:17:03.579Z,-0.34
2018-01-15T07:18:29.456Z,-0.34
2018-01-15T07:19:57.477Z,-0.33
2018-01-15T07:21:24.527Z,-0.35
2018-01-15T07:22:50.586Z,-0.37
2018-01-15T07:24:18.469Z,-0.36
2018-01-15T07:25:45.584Z,-0.36
2018-01-15T07:27:12.741Z,-0.34
2018-01-15T07:28:39.694Z,-0.33
2018-01-15T07:30:06.848Z,-0.35
2018-01-15T07:31:32.940Z,-0.36
2018-01-15T07:33:01.188Z,-0.37
2018-01-15T07:34:28.188Z,-0.38
2018-01-15T07:35:54.349Z,-0.35
2018-01-15T07:37:21.386Z,-0.33
2018-01-15T07:38:49.604Z,-0.31
2018-01-15T07:40:16.571Z,-0.30
2018-01-15T07:41:43.750Z,-0.28
2018-01-15T07:43:10.604Z,-0.25
2018-01-15T07:44:37.678Z,-0.25
2018-01-15T07:46:04.856Z,-0.23
2018-01-15T07:47:31.927Z,-0.22
2018-01-15T07:48:58.801Z,-0.20
2018-01-15T07:50:25.969Z,-0.20
2018-01-15T07:51:52.282Z,-0.23
2018-01-15T07:53:20.372Z,-0.25
2018-01-15T07:54:47.279Z,-0.25
2018-01-15T07:56:13.096Z,-0.28
2018-01-15T07:57:40.332Z,-0.28
2018-01-15T07:59:07.363Z,-0.29
2018-01-15T08:00:35.526Z,-0.26
2018-01-15T08:02:02.569Z,-0.26
2018-01-15T08:03:29.453Z,-0.29
2018-01-15T08:04:55.590Z,-0.28
2018-01-15T08:06:23.562Z,-0.26
2018-01-15T08:07:49.633Z,-0.25
2018-01-15T08:09:17.796Z,-0.27
2018-01-15T08:10:44.939Z,-0.25
2018-01-15T08:12:11.118Z,-0.22
2018-01-15T08:13:38.066Z,-0.24
2018-01-15T08:15:06.147Z,-0.24
2018-01-15T08:16:33.021Z,-0.24
2018-01-15T08:17:59.955Z,-0.23
2018-01-15T08:19:26.851Z,-0.22
2018-01-15T08:20:54.123Z,-0.23
2018-01-15T08:22:20.845Z,-0.19
2018-01-15T08:23:47.955Z,-0.16
2018-01-15T08:25:14.887Z,-0.17
2018-01-15T08:26:41.775Z,-0.17
2018-01-15T08:28:07.789Z,-0.15
2018-01-15T08:29:34.855Z,-0.14
2018-01-15T08:31:03.057Z,-0.09
2018-01-15T08:32:30.192Z,-0.08
2018-01-15T08:33:56.130Z,-0.07
2018-01-15T08:35:23.183Z,-0.10
2018-01-15T08:36:51.222Z,-0.09
2018-01-15T08:38:17.377Z,-0.09
2018-01-15T08:39:45.568Z,-0.08
2018-01-15T08:41:12.515Z,-0.04
2018-01-15T08:42:39.570Z,-0.02
2018-01-15T08:44:06.535Z,0.02
2018-01-15T08:45:33.686Z,0.07
2018-01-15T08:47:00.679Z,0.08
2018-01-15T08:48:27.481Z,0.09
2018-01-15T08:49:54.606Z,0.12
2018-01-15T08:51:21.607Z,0.17
2018-01-15T08:52:48.506Z,0.21
2018-01-15T08:54:14.623Z,0.21
2018-01-15T08:55:42.482Z,0.23
2018-01-15T08:57:09.317Z,0.22
2018-01-15T08:58:35.307Z,0.22
2018-01-15T09:00:02.400Z,0.24
2018-01-15T09:01:29.938Z,0.26
2018-01-15T09:02:56.998Z,0.28
2018-01-15T09:04:23.869Z,0.31
2018-01-15T09:05:49.932Z,0.27
2018-01-15T09:07:18.118Z,0.28
2018-01-15T09:08:45.260Z,0.28
2018-01-15T09:10:12.131Z,0.26
2018-01-15T09:11:38.972Z,0.30
2018-01-15T09:13:06.013Z,0.29
2018-01-15T09:14:33.094Z,0.30
2018-01-15T09:15:59.967Z,0.33
2018-01-15T09:17:25.819Z,0.36
2018-01-15T09:18:54.081Z,0.38
2018-01-15T09:20:20.983Z,0.40
2018-01-15T09:21:47.143Z,0.42
2018-01-15T09:23:15.420Z,0.43
2018-01-15T09:24:42.613Z,0.46
2018-01-15T09:26:09.082Z,0.49
2018-01-15T09:27:35.317Z,0.50
2018-01-15T09:29:02.331Z,0.48
2018-01-15T09:30:28.311Z,0.52
2018-01-15T09:31:56.220Z,0.57
2018-01-15T09:33:21.776Z,0.60
2018-01-15T09:34:49.979Z,0.60
2018-01-15T09:36:16.202Z,0.60
2018-01-15T09:37:43.932Z,0.63
2018-01-15T09:39:10.989Z,0.66
2018-01-15T09:40:37.174Z,0.69
2018-01-15T09:42:05.394Z,0.69
2018-01-15T09:43:32.261Z,0.70
2018-01-15T09:44:59.216Z,0.68
2018-01-15T09:46:25.252Z,0.68
2018-01-15T09:47:53.487Z,0.71
2018-01-15T09:49:20.271Z,0.73
2018-01-15T09:50:47.457Z,0.77
2018-01-15T09:52:14.644Z,0.77
2018-01-15T09:53:40.731Z,0.78
2018-01-15T09:55:08.664Z,0.79
2018-01-15T09:56:35.884Z,0.80
2018-01-15T09:58:02.648Z,0.84
2018-01-15T09:59:29.635Z,0.90
2018-01-15T10:00:55.658Z,0.91
2018-01-15T10:02:22.757Z,0.95
2018-01-15T10:03:49.851Z,0.92
2018-01-15T10:05:17.914Z,0.91
2018-01-15T10:06:44.557Z,0.92
2018-01-15T10:08:11.676Z,0.94
2018-01-15T10:09:38.300Z,0.98
2018-01-15T10:11:03.886Z,1.03
2018-01-15T10:12:31.768Z,1.09
2018-01-15T10:13:58.634Z,1.14
2018-01-15T10:15:24.696Z,1.18
2018-01-15T10:16:51.928Z,1.24
2018-01-15T10:18:19.181Z,1.30
2018-01-15T10:19:47.308Z,1.35
2018-01-15T10:21:13.591Z,1.38
2018-01-15T10:22:40.660Z,1.40
2018-01-15T10:24:08.505Z,1.45
2018-01-15T10:25:35.731Z,1.50
2018-01-15T10:27:01.578Z,1.56
2018-01-15T10:28:29.597Z,1.58
2018-01-15T10:29:56.649Z,1.61
2018-01-15T10:31:22.425Z,1.63
2018-01-15T10:32:50.561Z,1.64
2018-01-15T10:34:17.630Z,1.66
2018-01-15T10:35:44.904Z,1.64
2018-01-15T10:37:10.801Z,1.65
2018-01-15T10:38:38.885Z,1.70
2018-01-15T10:40:06.157Z,1.72
2018-01-15T10:41:32.168Z,1.75
2018-01-15T10:42:59.169Z,1.78
2018-01-15T10:44:26.278Z,1.82
2018-01-15T10:45:54.150Z,1.85
2018-01-15T10:47:20.351Z,1.87
2018-01-15T10:48:47.572Z,1.87
2018-01-15T10:50:14.932Z,1.89
2018-01-15T10:51:42.767Z,1.94
2018-01-15T10:53:09.706Z,1.95
2018-01-15T10:54:36.388Z,1.95
2018-01-15T10:56:03.548Z,1.91
2018-01-15T10:57:29.406Z,1.90
2018-01-15T10:58:57.503Z,1.93
2018-01-15T11:00:23.712Z,1.94
2018-01-15T11:01:51.956Z,1.98
2018-01-15T11:03:19.151Z,1.95
2018-01-15T11:04:45.292Z,1.94
2018-01-15T11:06:12.493Z,1.93
2018-01-15T11:07:40.608Z,1.95
2018-01-15T11:09:06.638Z,1.94
2018-01-15T11:10:33.660Z,1.95
2018-01-15T11:12:01.472Z,1.97
2018-01-15T11:13:27.592Z,1.97
2018-01-15T11:14:55.913Z,2.00
2018-01-15T11:16:22.279Z,2.01
2018-01-15T11:17:49.509Z,2.04
2018-01-15T11:19:17.712Z,2.07
2018-01-15T11:20:44.620Z,2.09
2018-01-15T11:22:10.414Z,2.10
2018-01-15T11:23:38.108Z,2.10
2018-01-15T11:25:04.163Z,2.12
2018-01-15T11:26:31.305Z,2.15
2018-01-15T11:27:59.487Z,2.18
2018-01-15T11:29:26.567Z,2.17
2018-01-15T11:30:53.841Z,2.16
2018-01-15T11:32:20.005Z,2.16
2018-01-15T11:33:47.819Z,2.18
2018-01-15T11:35:14.168Z,2.20
2018-01-15T11:36:41.252Z,2.20
2018-01-15T11:38:09.232Z,2.24
2018-01-15T11:39:36.514Z,2.23
2018-01-15T11:41:03.752Z,2.27
2018-01-15T11:42:30.792Z,2.28
2018-01-15T11:43:56.806Z,2.30
2018-01-15T11:45:24.213Z,2.31
2018-01-15T11:46:51.362Z,2.30
2018-01-15T11:48:19.552Z,2.39
2018-01-15T11:49:45.800Z,2.45
2018-01-15T11:51:14.045Z,2.52
2018-01-15T11:52:40.531Z,2.55
2018-01-15T11:54:08.701Z,2.58
2018-01-15T11:55:34.885Z,2.55
2018-01-15T11:57:03.095Z,2.61
2018-01-15T11:58:29.135Z,2.63
2018-01-15T11:59:56.131Z,2.67
2018-01-15T12:01:26.312Z,2.71
2018-01-15T12:02:51.441Z,2.76
2018-01-15T12:04:18.415Z,2.82
2018-01-15T12:05:45.537Z,2.81
2018-01-15T12:07:11.630Z,2.79
2018-01-15T12:08:39.611Z,2.78
2018-01-15T12:10:05.613Z,2.83
2018-01-15T12:11:32.747Z,2.87
2018-01-15T12:13:00.684Z,2.92
2018-01-15T12:14:27.430Z,2.95
2018-01-15T12:15:54.760Z,2.94
2018-01-15T12:17:21.066Z,2.95
2018-01-15T12:18:49.056Z,2.94
2018-01-15T12:20:15.228Z,2.92
2018-01-15T12:21:42.358Z,2.90
2018-01-15T12:23:10.526Z,2.91
2018-01-15T12:24:37.957Z,2.91
2018-01-15T12:26:05.066Z,2.92
2018-01-15T12:27:31.882Z,2.92
2018-01-15T12:28:59.069Z,2.93
2018-01-15T12:30:25.833Z,2.91
2018-01-15T12:31:52.284Z,2.91
2018-01-15T12:33:18.537Z,2.91
2018-01-15T12:34:46.803Z,2.91
2018-01-15T12:36:13.851Z,2.90
2018-01-15T12:37:40.997Z,2.90
2018-01-15T12:39:08.087Z,2.89
2018-01-15T12:40:34.209Z,2.87
2018-01-15T12:42:01.306Z,2.87
2018-01-15T12:43:28.216Z,2.85
2018-01-15T12:44:55.217Z,2.85
2018-01-15T12:46:23.282Z,2.85
2018-01-15T12:47:50.552Z,2.86
2018-01-15T12:49:16.725Z,2.85
2018-01-15T12:50:44.861Z,2.85
2018-01-15T12:52:11.813Z,2.84
2018-01-15T12:53:38.687Z,2.83
2018-01-15T12:55:05.825Z,2.78
2018-01-15T12:56:32.921Z,2.77
2018-01-15T12:57:59.937Z,2.79
2018-01-15T12:59:25.823Z,2.77
2018-01-15T13:00:54.167Z,2.79
2018-01-15T13:02:21.450Z,2.80
2018-01-15T13:03:47.389Z,2.80
2018-01-15T13:05:14.647Z,2.80
2018-01-15T13:06:41.974Z,2.80
2018-01-15T13:08:08.630Z,2.80
2018-01-15T13:09:35.921Z,2.81
2018-01-15T13:11:03.864Z,2.82
2018-01-15T13:12:30.909Z,2.81
2018-01-15T13:13:56.959Z,2.81
2018-01-15T13:15:24.070Z,2.81
2018-01-15T13:16:51.199Z,2.82
2018-01-15T13:18:18.450Z,2.81
2018-01-15T13:19:46.545Z,2.77
2018-01-15T13:21:13.763Z,2.76
2018-01-15T13:22:39.750Z,2.76
2018-01-15T13:24:07.937Z,2.77
2018-01-15T13:25:35.172Z,2.79
2018-01-15T13:27:02.394Z,2.82
2018-01-15T13:28:29.466Z,2.85
2018-01-15T13:29:56.499Z,2.84
2018-01-15T13:31:22.240Z,2.84
2018-01-15T13:32:49.318Z,2.84
2018-01-15T13:34:16.470Z,2.86
2018-01-15T13:35:43.615Z,2.87
2018-01-15T13:37:10.761Z,2.88
2018-01-15T13:38:37.543Z,2.91
2018-01-15T13:40:05.812Z,2.92
2018-01-15T13:41:32.817Z,2.93
2018-01-15T13:42:58.785Z,2.93
2018-01-15T13:44:26.263Z,2.92
2018-01-15T13:45:53.379Z,2.91
2018-01-15T13:47:20.524Z,2.92
2018-01-15T13:48:46.708Z,2.95
2018-01-15T13:50:14.848Z,2.98
2018-01-15T13:51:41.172Z,3.01
2018-01-15T13:53:09.102Z,3.05
2018-01-15T13:54:36.122Z,3.05
2018-01-15T13:56:02.609Z,3.07
2018-01-15T13:57:28.838Z,3.07
2018-01-15T13:58:56.820Z,3.07
2018-01-15T14:00:26.001Z,3.08
2018-01-15T14:01:49.994Z,3.09
2018-01-15T14:03:16.263Z,3.09
2018-01-15T14:04:42.801Z,3.09
2018-01-15T14:06:10.193Z,3.09
2018-01-15T14:07:37.097Z,3.07
2018-01-15T14:09:04.143Z,3.03
2018-01-15T14:10:31.279Z,3.02
2018-01-15T14:11:58.438Z,3.01
2018-01-15T14:13:25.453Z,3.02
2018-01-15T14:14:53.459Z,3.03
2018-01-15T14:16:20.613Z,3.03
2018-01-15T14:17:47.793Z,3.01
2018-01-15T14:19:15.107Z,3.02
2018-01-15T14:20:41.262Z,3.02
2018-01-15T14:22:08.546Z,3.02
2018-01-15T14:23:35.441Z,3.02
2018-01-15T14:25:02.395Z,3.01
2018-01-15T14:26:29.661Z,3.00
2018-01-15T14:27:57.344Z,2.99
2018-01-15T14:29:24.410Z,2.99
2018-01-15T14:30:50.235Z,3.00
2018-01-15T14:32:17.502Z,2.99
2018-01-15T14:33:44.433Z,2.97
2018-01-15T14:35:10.974Z,2.95
2018-01-15T14:36:37.579Z,2.94
2018-01-15T14:38:03.686Z,2.94
2018-01-15T14:39:31.051Z,2.94
2018-01-15T14:40:58.926Z,2.93
2018-01-15T14:42:25.062Z,2.92
2018-01-15T14:43:52.274Z,2.91
2018-01-15T14:45:19.047Z,2.91
2018-01-15T14:46:46.843Z,2.90
2018-01-15T14:48:13.794Z,2.89
2018-01-15T14:49:39.479Z,2.88
2018-01-15T14:51:06.536Z,2.84
2018-01-15T14:52:33.713Z,2.83
2018-01-15T14:54:00.877Z,2.83
2018-01-15T14:55:27.946Z,2.82
2018-01-15T14:56:56.259Z,2.79
2018-01-15T14:58:22.455Z,2.79
2018-01-15T14:59:49.356Z,2.77
2018-01-15T15:01:17.003Z,2.75
2018-01-15T15:02:43.280Z,2.76
2018-01-15T15:04:10.278Z,2.77
2018-01-15T15:05:38.305Z,2.79
2018-01-15T15:07:04.152Z,2.81
2018-01-15T15:08:32.293Z,2.81
2018-01-15T15:09:59.271Z,2.81
2018-01-15T15:11:25.750Z,2.80
2018-01-15T15:12:51.762Z,2.81
2018-01-15T15:14:18.372Z,2.81
2018-01-15T15:15:45.822Z,2.82
2018-01-15T15:17:11.951Z,2.82
2018-01-15T15:18:38.937Z,2.82
2018-01-15T15:20:06.272Z,2.81
2018-01-15T15:21:34.432Z,2.80
2018-01-15T15:23:01.652Z,2.80
2018-01-15T15:24:28.512Z,2.80
2018-01-15T15:25:57.728Z,2.81
2018-01-15T15:27:23.015Z,2.79
2018-01-15T15:28:48.891Z,2.80
2018-01-15T15:30:16.398Z,2.80
2018-01-15T15:31:42.580Z,2.78
2018-01-15T15:33:09.775Z,2.80
2018-01-15T15:34:36.878Z,2.79
2018-01-15T15:36:03.941Z,2.79
2018-01-15T15:37:31.740Z,2.78
2018-01-15T15:38:57.564Z,2.76
2018-01-15T15:40:25.063Z,2.77
2018-01-15T15:41:51.260Z,2.77
2018-01-15T15:43:18.134Z,2.78
2018-01-15T15:44:46.406Z,2.80
2018-01-15T15:46:12.628Z,2.82
2018-01-15T15:47:40.841Z,2.80
2018-01-15T15:49:07.021Z,2.78
2018-01-15T15:50:34.149Z,2.76
2018-01-15T15:52:01.226Z,2.77
2018-01-15T15:53:29.435Z,2.77
2018-01-15T15:54:56.214Z,2.78
2018-01-15T15:56:22.244Z,2.79
2018-01-15T15:57:50.574Z,2.81
2018-01-15T15:59:16.801Z,2.82
2018-01-15T16:00:43.966Z,2.81
2018-01-15T16:02:11.144Z,2.80
2018-01-15T16:03:38.303Z,2.79
2018-01-15T16:05:06.538Z,2.78
2018-01-15T16:06:33.727Z,2.77
2018-01-15T16:08:00.952Z,2.77
2018-01-15T16:09:28.115Z,2.78
2018-01-15T16:10:54.974Z,2.78
2018-01-15T16:12:22.064Z,2.78
2018-01-15T16:13:48.262Z,2.80
2018-01-15T16:15:16.399Z,2.79
2018-01-15T16:16:43.426Z,2.79
2018-01-15T16:18:09.364Z,2.76
2018-01-15T16:19:37.353Z,2.75
2018-01-15T16:21:04.579Z,2.74
2018-01-15T16:22:30.847Z,2.77
2018-01-15T16:23:57.825Z,2.79
2018-01-15T16:25:25.849Z,2.79
2018-01-15T16:26:53.344Z,2.82
2018-01-15T16:28:19.095Z,2.83
2018-01-15T16:29:46.226Z,2.83
2018-01-15T16:31:13.335Z,2.84
2018-01-15T16:32:40.520Z,2.86
2018-01-15T16:34:08.789Z,2.85
2018-01-15T16:35:34.895Z,2.86
2018-01-15T16:37:02.010Z,2.86
2018-01-15T16:38:29.121Z,2.87
2018-01-15T16:39:57.258Z,2.89
2018-01-15T16:41:24.656Z,2.93
2018-01-15T16:42:50.693Z,2.94
2018-01-15T16:44:18.831Z,2.93
2018-01-15T16:45:45.690Z,2.92
2018-01-15T16:47:12.701Z,2.93
2018-01-15T16:48:39.990Z,2.92
2018-01-15T16:50:07.189Z,2.93
2018-01-15T16:51:33.295Z,2.93
2018-01-15T16:53:00.488Z,2.94
2018-01-15T16:54:28.636Z,2.95
2018-01-15T16:55:55.799Z,2.97
2018-01-15T16:57:21.913Z,2.98
2018-01-15T16:58:49.803Z,2.98
2018-01-15T17:00:17.121Z,2.99
2018-01-15T17:01:44.224Z,3.01
2018-01-15T17:03:10.260Z,2.99
2018-01-15T17:04:38.486Z,2.98
2018-01-15T17:06:04.491Z,3.00
2018-01-15T17:07:31.446Z,3.02
2018-01-15T17:08:58.443Z,3.04
2018-01-15T17:10:26.424Z,3.05
2018-01-15T17:11:52.566Z,3.02
2018-01-15T17:13:20.811Z,3.02
2018-01-15T17:14:46.594Z,3.02
2018-01-15T17:16:13.525Z,3.05
2018-01-15T17:17:39.941Z,3.04
2018-01-15T17:19:07.223Z,3.05
2018-01-15T17:20:35.380Z,3.05
2018-01-15T17:22:01.405Z,3.06
2018-01-15T17:23:29.337Z,3.06
2018-01-15T17:24:55.320Z,3.07
2018-01-15T17:26:22.439Z,3.05
2018-01-15T17:27:49.409Z,3.06
2018-01-15T17:29:16.579Z,3.07
2018-01-15T17:30:43.734Z,3.07
2018-01-15T17:32:12.009Z,3.10
2018-01-15T17:33:39.089Z,3.12
2018-01-15T17:35:06.193Z,3.12
2018-01-15T17:36:33.448Z,3.12
2018-01-15T17:37:59.600Z,3.13
2018-01-15T17:39:26.682Z,3.16
2018-01-15T17:40:55.025Z,3.15
2018-01-15T17:42:21.186Z,3.14
2018-01-15T17:43:49.455Z,3.16
2018-01-15T17:45:16.742Z,3.18
2018-01-15T17:46:43.796Z,3.19
2018-01-15T17:48:10.098Z,3.20
2018-01-15T17:49:37.380Z,3.21
2018-01-15T17:51:05.395Z,3.22
2018-01-15T17:52:32.137Z,3.22
2018-01-15T17:53:58.194Z,3.23
2018-01-15T17:55:25.321Z,3.22
2018-01-15T17:56:53.320Z,3.24
2018-01-15T17:58:20.471Z,3.25
2018-01-15T17:59:46.767Z,3.26
2018-01-15T18:01:14.998Z,3.27
2018-01-15T18:02:41.303Z,3.26
2018-01-15T18:04:08.537Z,3.25
2018-01-15T18:05:36.550Z,3.26
2018-01-15T18:07:03.650Z,3.27
2018-01-15T18:08:29.482Z,3.27
2018-01-15T18:09:56.577Z,3.27
2018-01-15T18:11:23.814Z,3.28
2018-01-15T18:12:50.971Z,3.29
2018-01-15T18:14:18.244Z,3.30
2018-01-15T18:15:46.536Z,3.32
2018-01-15T18:17:12.650Z,3.34
2018-01-15T18:18:40.856Z,3.36
2018-01-15T18:20:07.863Z,3.36
2018-01-15T18:21:34.959Z,3.38
2018-01-15T18:23:02.079Z,3.39
2018-01-15T18:24:29.363Z,3.40
2018-01-15T18:25:55.117Z,3.39
2018-01-15T18:27:22.106Z,3.40
2018-01-15T18:28:49.399Z,3.41
2018-01-15T18:30:16.629Z,3.42
2018-01-15T18:31:44.756Z,3.42
2018-01-15T18:33:11.888Z,3.43
2018-01-15T18:34:39.044Z,3.45
2018-01-15T18:36:06.116Z,3.46
2018-01-15T18:37:32.066Z,3.47
2018-01-15T18:38:59.334Z,3.48
2018-01-15T18:40:26.400Z,3.49
2018-01-15T18:41:54.622Z,3.48
2018-01-15T18:43:20.575Z,3.48
2018-01-15T18:44:47.714Z,3.49
2018-01-15T18:46:16.036Z,3.49
2018-01-15T18:47:42.453Z,3.48
2018-01-15T18:49:09.535Z,3.49
2018-01-15T18:50:36.817Z,3.49
2018-01-15T18:52:05.119Z,3.49
2018-01-15T18:53:31.340Z,3.50
2018-01-15T18:54:59.556Z,3.51
2018-01-15T18:56:26.680Z,3.50
2018-01-15T18:57:53.937Z,3.49
2018-01-15T18:59:21.260Z,3.50
2018-01-15T19:00:48.532Z,3.51